createdAt,value
2022-10-15T00:08:59.447Z,0
2022-10-15T00:14:00.050Z,0
2022-10-15T00:18:59.630Z,0
2022-10-15T00:24:01.244Z,0
2022-10-15T00:29:00.078Z,0
2022-10-15T00:33:59.404Z,0
2022-10-15T00:38:59.905Z,0
2022-10-15T00:43:59.564Z,0
2022-10-15T00:49:00.142Z,0
2022-10-15T00:53:59.643Z,0
2022-10-15T00:59:00.186Z,0
2022-10-15T01:03:59.759Z,0
2022-10-15T01:09:00.422Z,0
2022-10-15T01:13:59.405Z,0
2022-10-15T01:19:00.093Z,0
2022-10-15T01:23:59.441Z,0
2022-10-15T01:29:00.352Z,0
2022-10-15T01:33:59.464Z,0
2022-10-15T01:39:00.025Z,0
2022-10-15T01:43:59.938Z,0
2022-10-15T01:48:59.483Z,0
2022-10-15T01:54:00.264Z,0
2022-10-15T01:59:00.277Z,0
2022-10-15T02:03:59.705Z,0
2022-10-15T02:08:59.783Z,0
2022-10-15T02:13:59.856Z,0
2022-10-15T02:18:59.604Z,0
2022-10-15T02:23:59.949Z,0
2022-10-15T02:29:00.376Z,0
2022-10-15T02:33:59.611Z,0
2022-10-15T02:39:00.135Z,0
2022-10-15T02:43:59.472Z,0
2022-10-15T02:48:59.962Z,0
2022-10-15T02:53:59.550Z,0
2022-10-15T02:58:59.778Z,0
2022-10-15T03:04:00.231Z,0
2022-10-15T03:08:59.936Z,0
2022-10-15T03:13:59.938Z,0
2022-10-15T03:19:00.001Z,0
2022-10-15T03:23:59.827Z,0
2022-10-15T03:28:59.979Z,0
2022-10-15T03:34:00.145Z,0
2022-10-15T03:39:00.544Z,0
2022-10-15T03:44:00.076Z,0
2022-10-15T03:49:00.076Z,0
2022-10-15T03:53:59.785Z,0
2022-10-15T03:58:59.780Z,0
2022-10-15T04:03:59.520Z,0
2022-10-15T04:09:00.349Z,0
2022-10-15T04:14:00.463Z,0
2022-10-15T04:19:00.359Z,0
2022-10-15T04:24:00.575Z,0
2022-10-15T04:29:00.696Z,0
2022-10-15T04:34:00.175Z,0
2022-10-15T04:38:59.590Z,0
2022-10-15T04:43:59.587Z,0
2022-10-15T04:49:00.067Z,0
2022-10-15T04:54:00.403Z,0
2022-10-15T04:59:00.313Z,0
2022-10-15T05:04:00.230Z,0
2022-10-15T05:09:00.531Z,0
2022-10-15T05:14:00.441Z,0
2022-10-15T05:19:00.021Z,0
2022-10-15T05:23:59.951Z,0
2022-10-15T05:28:59.896Z,0
2022-10-15T05:34:00.298Z,0
2022-10-15T05:38:59.869Z,0
2022-10-15T05:43:59.672Z,0
2022-10-15T05:49:00.084Z,0
2022-10-15T05:54:00.292Z,0
2022-10-15T05:59:00.010Z,0
2022-10-15T06:04:00.049Z,0
2022-10-15T06:08:59.970Z,0
2022-10-15T06:13:59.441Z,0
2022-10-15T06:19:00.024Z,0
2022-10-15T06:23:59.575Z,0
2022-10-15T06:29:00.216Z,0
2022-10-15T06:33:59.752Z,0
2022-10-15T06:39:00.453Z,0
2022-10-15T06:44:00.492Z,0
2022-10-15T06:49:00.239Z,0
2022-10-15T06:53:59.903Z,0
2022-10-15T06:59:00.359Z,0
2022-10-15T07:04:00.665Z,0
2022-10-15T07:09:00.587Z,0
2022-10-15T07:14:00.367Z,0
2022-10-15T07:19:00.037Z,0
2022-10-15T07:23:59.576Z,0
2022-10-15T07:29:00.387Z,0
2022-10-15T07:34:00.510Z,0
2022-10-15T07:39:00.404Z,0
2022-10-15T07:44:00.387Z,0
2022-10-15T07:49:00.334Z,0
2022-10-15T07:53:59.699Z,0
2022-10-15T07:59:00.356Z,0.5
2022-10-15T08:04:00.383Z,0.5
2022-10-15T08:09:00.238Z,0.6
2022-10-15T08:13:59.920Z,0.6
2022-10-15T08:19:00.419Z,0.6
2022-10-15T08:24:00.309Z,0.6
2022-10-15T08:28:59.826Z,0.6
2022-10-15T08:34:00.447Z,0.6
2022-10-15T08:39:00.180Z,0.7
2022-10-15T08:43:59.757Z,0.7
2022-10-15T08:49:00.361Z,0.8
2022-10-15T08:53:59.790Z,0.8
2022-10-15T08:58:59.741Z,0.8
2022-10-15T09:03:59.678Z,0.8
2022-10-15T09:09:00.420Z,0.9
2022-10-15T09:14:00.390Z,0.9
2022-10-15T09:19:00.069Z,0.9
2022-10-15T09:24:00.164Z,0.9
2022-10-15T09:29:00.165Z,1
2022-10-15T09:33:59.718Z,1
2022-10-15T09:39:00.430Z,1.2
2022-10-15T09:44:00.264Z,1.2
2022-10-15T09:49:00.331Z,1.2
2022-10-15T09:54:00.501Z,1.2
2022-10-15T09:59:00.508Z,1.1
2022-10-15T10:03:59.767Z,1.1
2022-10-15T10:09:00.280Z,1.1
2022-10-15T10:14:00.648Z,1.1
2022-10-15T10:19:00.281Z,1.1
2022-10-15T10:24:00.294Z,1.1
2022-10-15T10:29:15.875Z,1.5
2022-10-15T10:34:00.078Z,1.5
2022-10-15T10:38:59.967Z,1.2
2022-10-15T10:44:00.535Z,1.2
2022-10-15T10:49:00.201Z,1.2
2022-10-15T10:54:00.178Z,1.2
2022-10-15T10:59:00.078Z,1.2
2022-10-15T11:03:59.904Z,1.2
2022-10-15T11:08:59.955Z,1.3
2022-10-15T11:13:59.728Z,1.3
2022-10-15T11:19:25.428Z,1.2
2022-10-15T11:24:00.824Z,1.2
2022-10-15T11:29:00.256Z,1.2
2022-10-15T11:34:00.023Z,1.2
2022-10-15T11:39:00.429Z,1.3
2022-10-15T11:44:00.235Z,1.3
2022-10-15T11:48:59.874Z,0.6
2022-10-15T11:54:00.595Z,0.6
2022-10-15T11:59:00.342Z,1
2022-10-15T12:03:59.863Z,1
2022-10-15T12:09:00.503Z,1.1
2022-10-15T12:14:00.594Z,1.1
2022-10-15T12:19:00.083Z,0.3
2022-10-15T12:24:00.194Z,0.3
2022-10-15T12:29:03.390Z,0
2022-10-15T12:33:59.935Z,0
2022-10-15T12:38:59.887Z,0.5
2022-10-15T12:44:00.699Z,0.5
2022-10-15T12:49:00.264Z,0
2022-10-15T12:54:00.221Z,0
2022-10-15T12:59:00.108Z,0.9
2022-10-15T13:03:59.927Z,0.9
2022-10-15T13:09:00.038Z,0.8
2022-10-15T13:14:00.632Z,0.8
2022-10-15T13:19:00.074Z,0.7
2022-10-15T13:24:00.663Z,0.7
2022-10-15T13:29:00.704Z,0.6
2022-10-15T13:34:00.347Z,0.6
2022-10-15T13:39:01.249Z,0.6
2022-10-15T13:44:00.099Z,0.6
2022-10-15T13:48:59.994Z,0.3
2022-10-15T13:54:00.651Z,0.3
2022-10-15T13:59:00.702Z,0.7
2022-10-15T14:04:00.381Z,0.7
2022-10-15T14:09:00.278Z,0.7
2022-10-15T14:13:59.995Z,0.7
2022-10-15T14:19:00.259Z,0.7
2022-10-15T14:24:00.323Z,0.7
2022-10-15T14:29:00.568Z,0.6
2022-10-15T14:34:00.674Z,0.6
2022-10-15T14:39:00.155Z,0.3
2022-10-15T14:44:00.659Z,0.3
2022-10-15T14:49:00.271Z,0
2022-10-15T14:54:00.271Z,0
2022-10-15T14:58:59.857Z,0
2022-10-15T15:04:00.632Z,0
2022-10-15T15:09:00.714Z,0
2022-10-15T15:13:59.798Z,0
2022-10-15T15:19:00.843Z,0
2022-10-15T15:23:59.889Z,0
2022-10-15T15:29:00.866Z,0
2022-10-15T15:34:00.757Z,0
2022-10-15T15:39:00.507Z,0
2022-10-15T15:44:00.433Z,0
2022-10-15T15:49:00.089Z,0
2022-10-15T15:54:00.685Z,0
2022-10-15T15:59:00.568Z,0
2022-10-15T16:04:00.856Z,0
2022-10-15T16:09:00.341Z,0
2022-10-15T16:14:00.291Z,0
2022-10-15T16:19:00.787Z,0
2022-10-15T16:29:00.462Z,0
2022-10-15T16:34:00.938Z,0
2022-10-15T16:39:00.127Z,0
2022-10-15T16:44:00.750Z,0
2022-10-15T16:49:00.290Z,0
2022-10-15T16:54:00.070Z,0
2022-10-15T16:59:00.827Z,0
2022-10-15T17:04:00.561Z,0
2022-10-15T17:09:00.219Z,0
2022-10-15T17:13:59.888Z,0
2022-10-15T17:19:00.381Z,0
2022-10-15T17:23:59.952Z,0
2022-10-15T17:29:00.769Z,0
2022-10-15T17:34:00.575Z,0
2022-10-15T17:39:00.639Z,0
2022-10-15T17:44:00.165Z,0
2022-10-15T17:49:00.693Z,0
2022-10-15T17:54:00.519Z,0
2022-10-15T17:59:00.107Z,0
2022-10-15T18:04:00.417Z,0
2022-10-15T18:08:59.988Z,0
2022-10-15T18:14:00.282Z,0
2022-10-15T18:19:00.687Z,0
2022-10-15T18:24:00.170Z,0
2022-10-15T18:29:00.683Z,0
2022-10-15T18:34:00.092Z,0
2022-10-15T18:39:00.941Z,0
2022-10-15T18:44:00.637Z,0
2022-10-15T18:49:00.349Z,0
2022-10-15T18:54:00.259Z,0
2022-10-15T18:59:00.986Z,0
2022-10-15T19:04:00.820Z,0
2022-10-15T19:09:00.216Z,0
2022-10-15T19:14:00.682Z,0
2022-10-15T19:19:00.453Z,0
2022-10-15T19:24:00.388Z,0
2022-10-15T19:29:00.427Z,0
2022-10-15T19:34:00.260Z,0
2022-10-15T19:39:00.964Z,0
2022-10-15T19:44:00.479Z,0
2022-10-15T19:49:00.031Z,0
2022-10-15T19:54:00.718Z,0
2022-10-15T19:59:00.182Z,0
2022-10-15T20:04:07.315Z,0
2022-10-15T20:09:00.139Z,0
2022-10-15T20:14:00.536Z,0
2022-10-15T20:19:00.991Z,0
2022-10-15T20:24:00.554Z,0
2022-10-15T20:29:00.386Z,0
2022-10-15T20:34:01.058Z,0
2022-10-15T20:39:01.072Z,0
2022-10-15T20:44:00.747Z,0
2022-10-15T20:49:08.628Z,0
2022-10-15T20:54:00.389Z,0
2022-10-15T20:59:00.761Z,0
2022-10-15T21:04:00.209Z,0
2022-10-15T21:09:00.518Z,0
2022-10-15T21:14:00.762Z,0
2022-10-15T21:19:00.529Z,0
2022-10-15T21:24:01.198Z,0
2022-10-15T21:29:01.254Z,0
2022-10-15T21:34:00.844Z,0
2022-10-15T21:39:00.447Z,0
2022-10-15T21:44:00.549Z,0
2022-10-15T21:49:00.903Z,0
2022-10-15T21:54:00.687Z,0
2022-10-15T21:59:00.953Z,0
2022-10-15T22:04:00.883Z,0
2022-10-15T22:09:00.765Z,0
2022-10-15T22:14:00.574Z,0
2022-10-15T22:19:01.088Z,0
2022-10-15T22:24:00.792Z,0
2022-10-15T22:29:01.042Z,0
2022-10-15T22:34:00.486Z,0
2022-10-15T22:39:00.884Z,0
2022-10-15T22:44:01.139Z,0
2022-10-15T22:49:00.498Z,0
2022-10-15T22:54:01.053Z,0
2022-10-15T22:59:00.555Z,0
2022-10-15T23:04:00.111Z,0
2022-10-15T23:09:00.744Z,0
2022-10-15T23:14:00.419Z,0
2022-10-15T23:19:00.862Z,0
2022-10-15T23:24:00.390Z,0
2022-10-15T23:29:00.577Z,0
2022-10-15T23:34:00.976Z,0
2022-10-15T23:39:00.455Z,0
2022-10-15T23:44:01.066Z,0
2022-10-15T23:49:00.422Z,0
2022-10-15T23:54:00.766Z,0
2022-10-15T23:59:01.167Z,0
